createdAt,value
2023-01-09T00:01:31.702Z,99205.41
2023-01-09T00:03:59.866Z,99212.56
2023-01-09T00:06:27.798Z,99212.56
2023-01-09T00:08:55.624Z,99214.44
2023-01-09T00:11:23.741Z,99208.19
2023-01-09T00:13:51.502Z,99218.91
2023-01-09T00:16:19.561Z,99217.91
2023-01-09T00:18:48.886Z,99216.94
2023-01-09T00:21:17.499Z,99206.28
2023-01-09T00:23:45.261Z,99210.72
2023-01-09T00:26:14.912Z,99208.94
2023-01-09T00:28:42.891Z,99204.56
2023-01-09T00:31:11.691Z,99203.72
2023-01-09T00:33:42.318Z,99204.56
2023-01-09T00:36:12.751Z,99204.63
2023-01-09T00:38:41.210Z,99208.25
2023-01-09T00:41:14.207Z,99208.19
2023-01-09T00:43:46.235Z,99205.63
2023-01-09T00:46:16.116Z,99204.72
2023-01-09T00:48:47.683Z,99212.72
2023-01-09T00:51:18.229Z,99213.69
2023-01-09T00:53:46.324Z,99222.72
2023-01-09T00:56:17.905Z,99219.34
2023-01-09T00:58:46.612Z,99228.34
2023-01-09T01:01:14.529Z,99229.25
2023-01-09T01:03:42.616Z,99235.72
2023-01-09T01:06:28.121Z,99245.53
2023-01-09T01:08:57.357Z,99246.38
2023-01-09T01:11:25.533Z,99247.34
2023-01-09T01:13:53.689Z,99253.66
2023-01-09T01:16:21.655Z,99262.72
2023-01-09T01:18:50.501Z,99262.69
2023-01-09T01:21:19.103Z,99258.34
2023-01-09T01:23:46.827Z,99258.31
2023-01-09T01:26:17.712Z,99260.88
2023-01-09T01:28:45.564Z,99265.31
2023-01-09T01:31:17.824Z,99267.00
2023-01-09T01:33:45.664Z,99255.47
2023-01-09T01:36:18.022Z,99264.38
2023-01-09T01:38:47.420Z,99266.25
2023-01-09T01:41:29.621Z,99269.78
2023-01-09T01:43:59.202Z,99272.50
2023-01-09T01:46:27.418Z,99272.44
2023-01-09T01:49:00.749Z,99267.13
2023-01-09T01:51:32.019Z,99263.72
2023-01-09T01:54:04.642Z,99277.09
2023-01-09T01:56:38.853Z,99284.28
2023-01-09T01:59:13.142Z,99287.97
2023-01-09T02:01:43.881Z,99293.38
2023-01-09T02:04:12.798Z,99294.25
2023-01-09T02:06:42.136Z,99295.19
2023-01-09T02:09:10.341Z,99298.69
2023-01-09T02:11:45.588Z,99295.97
2023-01-09T02:14:13.822Z,99295.97
2023-01-09T02:16:56.150Z,99305.75
2023-01-09T02:19:54.926Z,99310.38
2023-01-09T02:22:36.981Z,99299.84
2023-01-09T02:25:44.606Z,99302.59
2023-01-09T02:28:45.968Z,99300.09
2023-01-09T02:31:22.986Z,99294.94
2023-01-09T02:34:00.863Z,99287.94
2023-01-09T02:36:35.454Z,99295.19
2023-01-09T02:39:17.314Z,99301.56
2023-01-09T02:41:54.471Z,99307.91
2023-01-09T02:44:23.805Z,99310.75
2023-01-09T02:47:03.579Z,99312.66
2023-01-09T02:49:32.887Z,99325.13
2023-01-09T02:52:22.224Z,99327.88
2023-01-09T02:55:02.152Z,99330.56
2023-01-09T02:57:43.896Z,99330.50
2023-01-09T03:00:23.366Z,99328.69
2023-01-09T03:02:57.758Z,99326.94
2023-01-09T03:05:32.074Z,99322.34
2023-01-09T03:08:04.349Z,99318.75
2023-01-09T03:10:37.357Z,99324.06
2023-01-09T03:13:06.899Z,99323.22
2023-01-09T03:15:38.654Z,99316.09
2023-01-09T03:18:11.879Z,99325.06
2023-01-09T03:20:40.466Z,99328.81
2023-01-09T03:23:09.236Z,99328.97
2023-01-09T03:25:37.185Z,99322.88
2023-01-09T03:28:07.889Z,99330.97
2023-01-09T03:30:37.807Z,99332.81
2023-01-09T03:33:07.330Z,99331.13
2023-01-09T03:35:35.139Z,99338.41
2023-01-09T03:38:02.866Z,99337.53
2023-01-09T03:40:30.777Z,99350.06
2023-01-09T03:42:58.644Z,99344.00
2023-01-09T03:45:26.496Z,99354.63
2023-01-09T03:47:54.250Z,99357.41
2023-01-09T03:50:24.368Z,99361.06
2023-01-09T03:52:52.381Z,99355.78
2023-01-09T03:55:20.188Z,99362.91
2023-01-09T03:57:47.899Z,99361.09
2023-01-09T04:00:16.283Z,99368.16
2023-01-09T04:02:44.053Z,99362.09
2023-01-09T04:05:12.561Z,99363.88
2023-01-09T04:07:43.942Z,99370.97
2023-01-09T04:10:12.549Z,99370.13
2023-01-09T04:12:40.345Z,99372.78
2023-01-09T04:15:08.917Z,99369.28
2023-01-09T04:17:36.770Z,99364.88
2023-01-09T04:20:05.651Z,99360.50
2023-01-09T04:22:33.498Z,99360.50
2023-01-09T04:25:03.324Z,99362.25
2023-01-09T04:27:31.294Z,99350.78
2023-01-09T04:29:59.035Z,99354.34
2023-01-09T04:32:27.730Z,99364.97
2023-01-09T04:34:55.665Z,99365.81
2023-01-09T04:37:24.824Z,99369.34
2023-01-09T04:39:54.847Z,99371.94
2023-01-09T04:42:24.858Z,99374.81
2023-01-09T04:44:54.123Z,99376.50
2023-01-09T04:47:22.182Z,99385.38
2023-01-09T04:49:50.170Z,99383.66
2023-01-09T04:52:18.337Z,99382.78
2023-01-09T04:54:46.144Z,99384.56
2023-01-09T04:57:14.030Z,99389.09
2023-01-09T04:59:43.242Z,99381.09
2023-01-09T05:02:11.952Z,99392.69
2023-01-09T05:04:39.918Z,99398.84
2023-01-09T05:07:07.772Z,99398.81
2023-01-09T05:09:36.200Z,99396.06
2023-01-09T05:12:04.930Z,99404.72
2023-01-09T05:14:32.858Z,99407.38
2023-01-09T05:17:02.107Z,99411.84
2023-01-09T05:19:29.986Z,99403.66
2023-01-09T05:21:57.734Z,99411.56
2023-01-09T05:24:25.542Z,99414.97
2023-01-09T05:26:53.335Z,99416.69
2023-01-09T05:29:21.134Z,99416.69
2023-01-09T05:31:48.947Z,99414.91
2023-01-09T05:34:18.113Z,99408.56
2023-01-09T05:36:47.160Z,99409.41
2023-01-09T05:39:15.113Z,99408.44
2023-01-09T05:41:43.002Z,99414.72
2023-01-09T05:44:11.020Z,99412.91
2023-01-09T05:46:38.852Z,99407.56
2023-01-09T05:49:06.782Z,99411.94
2023-01-09T05:51:36.155Z,99411.06
2023-01-09T05:54:05.435Z,99411.91
2023-01-09T05:56:33.317Z,99412.78
2023-01-09T05:59:01.092Z,99423.34
2023-01-09T06:01:28.954Z,99415.38
2023-01-09T06:03:56.882Z,99428.69
2023-01-09T06:06:24.718Z,99423.41
2023-01-09T06:08:54.684Z,99421.59
2023-01-09T06:11:22.663Z,99419.03
2023-01-09T06:13:50.513Z,99418.16
2023-01-09T06:16:18.353Z,99418.09
2023-01-09T06:18:46.351Z,99412.78
2023-01-09T06:21:14.302Z,99425.16
2023-01-09T06:23:42.372Z,99416.31
2023-01-09T06:26:11.626Z,99418.88
2023-01-09T06:28:39.603Z,99416.22
2023-01-09T06:31:07.475Z,99412.53
2023-01-09T06:33:35.488Z,99426.69
2023-01-09T06:36:03.480Z,99419.56
2023-01-09T06:38:31.278Z,99426.59
2023-01-09T06:40:59.097Z,99414.13
2023-01-09T06:43:28.257Z,99406.13
2023-01-09T06:45:56.334Z,99422.94
2023-01-09T06:48:25.063Z,99412.34
2023-01-09T06:50:52.891Z,99412.22
2023-01-09T06:53:21.486Z,99401.53
2023-01-09T06:55:49.445Z,99409.47
2023-01-09T06:58:20.442Z,99404.06
2023-01-09T07:00:53.867Z,99404.09
2023-01-09T07:03:22.572Z,99398.81
2023-01-09T07:05:50.920Z,99412.13
2023-01-09T07:08:19.072Z,99406.81
2023-01-09T07:10:47.007Z,99405.91
2023-01-09T07:13:14.987Z,99413.03
2023-01-09T07:15:43.150Z,99407.69
2023-01-09T07:18:12.960Z,99418.34
2023-01-09T07:20:41.803Z,99411.97
2023-01-09T07:23:12.611Z,99406.66
2023-01-09T07:25:40.956Z,99410.16
2023-01-09T07:28:08.915Z,99400.53
2023-01-09T07:30:37.261Z,99411.13
2023-01-09T07:33:05.508Z,99411.19
2023-01-09T07:35:38.303Z,99422.78
2023-01-09T07:38:06.387Z,99423.63
2023-01-09T07:40:35.082Z,99415.69
2023-01-09T07:43:03.018Z,99414.84
2023-01-09T07:45:31.008Z,99406.91
2023-01-09T07:47:58.862Z,99415.78
2023-01-09T07:50:27.139Z,99414.91
2023-01-09T07:52:56.507Z,99424.69
2023-01-09T07:55:24.438Z,99430.84
2023-01-09T07:57:53.273Z,99425.47
2023-01-09T08:00:24.877Z,99435.22
2023-01-09T08:02:53.756Z,99430.75
2023-01-09T08:05:22.682Z,99431.59
2023-01-09T08:07:51.590Z,99437.78
2023-01-09T08:10:21.747Z,99444.88
2023-01-09T08:12:50.363Z,99449.31
2023-01-09T08:15:18.694Z,99443.09
2023-01-09T08:17:47.453Z,99456.41
2023-01-09T08:20:18.357Z,99453.75
2023-01-09T08:22:50.872Z,99451.97
2023-01-09T08:25:20.538Z,99447.56
2023-01-09T08:27:48.659Z,99464.34
2023-01-09T08:30:17.259Z,99465.34
2023-01-09T08:32:49.946Z,99457.38
2023-01-09T08:35:18.245Z,99455.59
2023-01-09T08:37:46.295Z,99449.38
2023-01-09T08:40:15.431Z,99460.91
2023-01-09T08:43:02.222Z,99468.97
2023-01-09T08:45:48.195Z,99470.69
2023-01-09T08:48:16.930Z,99468.94
2023-01-09T08:50:45.689Z,99478.63
2023-01-09T08:53:16.073Z,99476.97
2023-01-09T08:55:44.314Z,99470.72
2023-01-09T08:58:14.381Z,99468.06
2023-01-09T09:00:42.485Z,99475.09
2023-01-09T09:03:11.172Z,99483.97
2023-01-09T09:05:39.236Z,99479.38
2023-01-09T09:08:10.190Z,99478.50
2023-01-09T09:10:38.022Z,99487.31
2023-01-09T09:13:06.338Z,99485.59
2023-01-09T09:15:38.652Z,99484.69
2023-01-09T09:18:09.623Z,99488.09
2023-01-09T09:20:39.913Z,99491.59
2023-01-09T09:23:08.985Z,99491.56
2023-01-09T09:25:38.651Z,99487.84
2023-01-09T09:28:07.374Z,99490.31
2023-01-09T09:30:37.036Z,99499.16
2023-01-09T09:33:05.866Z,99493.59
2023-01-09T09:35:34.471Z,99506.84
2023-01-09T09:38:05.479Z,99501.50
2023-01-09T09:40:48.881Z,99510.31
2023-01-09T09:43:56.638Z,99521.16
2023-01-09T09:46:37.109Z,99525.59
2023-01-09T09:49:12.401Z,99536.09
2023-01-09T09:51:56.245Z,99540.50
2023-01-09T09:54:31.668Z,99535.09
2023-01-09T09:57:03.489Z,99545.63
2023-01-09T09:59:37.983Z,99550.00
2023-01-09T10:02:25.006Z,99563.38
2023-01-09T10:04:59.918Z,99566.81
2023-01-09T10:07:32.381Z,99558.91
2023-01-09T10:10:05.111Z,99571.25
2023-01-09T10:12:38.462Z,99568.69
2023-01-09T10:15:17.827Z,99571.44
2023-01-09T10:17:59.107Z,99567.94
2023-01-09T10:20:44.207Z,99567.94
2023-01-09T10:23:26.429Z,99584.69
2023-01-09T10:26:00.916Z,99577.59
2023-01-09T10:28:56.011Z,99575.69
2023-01-09T10:31:33.777Z,99568.59
2023-01-09T10:34:15.699Z,99573.09
2023-01-09T10:36:59.327Z,99568.63
2023-01-09T10:39:32.754Z,99573.06
2023-01-09T10:42:08.656Z,99572.22
2023-01-09T10:44:41.735Z,99589.91
2023-01-09T10:47:23.631Z,99584.47
2023-01-09T10:49:55.504Z,99595.06
2023-01-09T10:52:31.352Z,99600.28
2023-01-09T10:55:19.596Z,99594.84
2023-01-09T10:58:02.240Z,99602.78
2023-01-09T11:00:30.134Z,99599.31
2023-01-09T11:02:58.662Z,99594.94
2023-01-09T11:05:32.727Z,99598.38
2023-01-09T11:08:06.631Z,99603.69
2023-01-09T11:10:48.426Z,99610.78
2023-01-09T11:13:22.260Z,99611.75
2023-01-09T11:16:04.459Z,99614.44
2023-01-09T11:18:33.874Z,99605.56
2023-01-09T11:21:27.060Z,99616.31
2023-01-09T11:23:55.138Z,99616.19
2023-01-09T11:26:25.513Z,99616.97
2023-01-09T11:29:07.659Z,99621.34
2023-01-09T11:31:35.971Z,99611.66
2023-01-09T11:34:04.072Z,99616.94
2023-01-09T11:36:34.224Z,99629.44
2023-01-09T11:39:03.202Z,99615.97
2023-01-09T11:41:35.102Z,99626.41
2023-01-09T11:44:06.425Z,99628.28
2023-01-09T11:46:38.431Z,99628.19
2023-01-09T11:49:20.919Z,99625.47
2023-01-09T11:52:12.915Z,99632.66
2023-01-09T11:54:47.479Z,99639.72
2023-01-09T11:57:16.962Z,99641.50
2023-01-09T11:59:45.630Z,99642.44
2023-01-09T12:02:31.824Z,99649.69
2023-01-09T12:05:11.409Z,99655.16
2023-01-09T12:07:56.509Z,99657.84
2023-01-09T12:10:47.554Z,99657.75
2023-01-09T12:13:31.712Z,99661.28
2023-01-09T12:16:09.802Z,99665.94
2023-01-09T12:18:49.991Z,99665.81
2023-01-09T12:21:33.713Z,99657.84
2023-01-09T12:24:31.584Z,99668.41
2023-01-09T12:27:09.781Z,99684.25
2023-01-09T12:29:57.250Z,99685.34
2023-01-09T12:32:47.370Z,99678.19
2023-01-09T12:35:31.576Z,99682.47
2023-01-09T12:38:21.927Z,99685.06
2023-01-09T12:41:28.396Z,99682.53
2023-01-09T12:44:24.270Z,99673.75
2023-01-09T12:47:18.613Z,99696.00
2023-01-09T12:49:59.700Z,99689.09
2023-01-09T12:52:32.466Z,99688.97
2023-01-09T12:55:05.263Z,99696.09
2023-01-09T12:57:37.006Z,99693.56
2023-01-09T13:00:16.099Z,99691.94
2023-01-09T13:03:00.396Z,99690.19
2023-01-09T13:05:36.769Z,99700.81
2023-01-09T13:08:09.967Z,99712.47
2023-01-09T13:10:42.471Z,99711.47
2023-01-09T13:13:17.234Z,99721.13
2023-01-09T13:15:51.347Z,99731.72
2023-01-09T13:18:24.611Z,99732.56
2023-01-09T13:20:56.690Z,99730.75
2023-01-09T13:23:37.377Z,99736.00
2023-01-09T13:26:10.455Z,99740.25
2023-01-09T13:28:47.233Z,99746.41
2023-01-09T13:31:55.167Z,99745.63
2023-01-09T13:34:26.080Z,99742.91
2023-01-09T13:36:56.616Z,99757.03
2023-01-09T13:39:29.121Z,99764.00
2023-01-09T13:42:16.555Z,99759.63
2023-01-09T13:44:45.520Z,99767.59
2023-01-09T13:47:21.451Z,99771.97
2023-01-09T13:50:24.192Z,99780.00
2023-01-09T13:52:54.639Z,99777.34
2023-01-09T13:55:26.871Z,99794.25
2023-01-09T13:58:22.786Z,99789.84
2023-01-09T14:01:01.653Z,99795.28
2023-01-09T14:03:34.108Z,99795.25
2023-01-09T14:06:16.657Z,99798.84
2023-01-09T14:08:45.812Z,99804.22
2023-01-09T14:11:21.334Z,99807.84
2023-01-09T14:13:57.954Z,99806.91
2023-01-09T14:16:27.653Z,99811.34
2023-01-09T14:19:04.225Z,99822.81
2023-01-09T14:21:46.803Z,99821.00
2023-01-09T14:24:23.472Z,99839.66
2023-01-09T14:26:57.096Z,99843.34
2023-01-09T14:30:19.771Z,99854.97
2023-01-09T14:32:57.882Z,99851.50
2023-01-09T14:35:33.713Z,99854.16
2023-01-09T14:38:07.644Z,99864.78
2023-01-09T14:40:37.289Z,99872.84
2023-01-09T14:43:20.526Z,99874.59
2023-01-09T14:45:50.604Z,99879.91
2023-01-09T14:48:27.885Z,99891.38
2023-01-09T14:51:00.058Z,99894.91
2023-01-09T14:53:31.893Z,99903.72
2023-01-09T14:56:01.094Z,99918.84
2023-01-09T14:58:30.366Z,99914.41
2023-01-09T15:01:05.200Z,99925.06
2023-01-09T15:03:39.437Z,99925.97
2023-01-09T15:06:16.551Z,99931.28
2023-01-09T15:08:47.115Z,99939.31
2023-01-09T15:11:15.481Z,99939.31
2023-01-09T15:13:47.922Z,99951.78
2023-01-09T15:16:18.583Z,99944.81
2023-01-09T15:18:49.929Z,99954.63
2023-01-09T15:21:23.127Z,99962.59
2023-01-09T15:23:51.378Z,99965.25
2023-01-09T15:26:26.789Z,99973.28
2023-01-09T15:29:01.333Z,99980.38
2023-01-09T15:31:30.282Z,99993.75
2023-01-09T15:33:58.888Z,99997.31
2023-01-09T15:36:31.099Z,100000.00
2023-01-09T15:39:00.959Z,100006.28
2023-01-09T15:41:47.899Z,100012.53
2023-01-09T15:44:19.540Z,100013.41
2023-01-09T15:46:50.551Z,100019.63
2023-01-09T15:49:21.489Z,100029.47
2023-01-09T15:51:53.805Z,100027.69
2023-01-09T15:54:30.250Z,100033.00
2023-01-09T15:57:34.119Z,100043.59
2023-01-09T16:00:32.171Z,100048.09
2023-01-09T16:03:13.548Z,100070.34
2023-01-09T16:05:42.342Z,100065.91
2023-01-09T16:08:25.979Z,100078.41
2023-01-09T16:10:57.343Z,100074.00
2023-01-09T16:13:28.512Z,100080.19
2023-01-09T16:15:59.091Z,100091.78
2023-01-09T16:18:33.622Z,100090.06
2023-01-09T16:21:08.562Z,100105.16
2023-01-09T16:23:39.601Z,100107.84
2023-01-09T16:26:12.904Z,100114.91
2023-01-09T16:28:42.849Z,100116.69
2023-01-09T16:31:23.853Z,100123.78
2023-01-09T16:33:58.512Z,100126.47
2023-01-09T16:36:28.404Z,100119.34
2023-01-09T16:39:00.901Z,100122.06
2023-01-09T16:41:45.726Z,100134.50
2023-01-09T16:44:13.844Z,100129.19
2023-01-09T16:46:44.265Z,100147.84
2023-01-09T16:49:20.524Z,100141.69
2023-01-09T16:51:49.903Z,100139.06
2023-01-09T16:54:19.459Z,100146.16
2023-01-09T16:56:50.296Z,100146.16
2023-01-09T16:59:26.950Z,100156.03
2023-01-09T17:01:56.013Z,100156.91
2023-01-09T17:04:25.056Z,100156.91
2023-01-09T17:06:55.069Z,100170.31
2023-01-09T17:09:27.802Z,100182.75
2023-01-09T17:11:55.958Z,100181.91
2023-01-09T17:14:24.618Z,100185.53
2023-01-09T17:16:53.245Z,100190.88
2023-01-09T17:19:25.638Z,100189.16
2023-01-09T17:21:56.095Z,100195.28
2023-01-09T17:24:43.551Z,100205.97
2023-01-09T17:27:32.067Z,100202.47
2023-01-09T17:30:00.796Z,100205.09
2023-01-09T17:32:32.089Z,100211.38
2023-01-09T17:35:10.573Z,100212.19
2023-01-09T17:37:40.718Z,100219.34
2023-01-09T17:40:23.242Z,100220.22
2023-01-09T17:42:51.444Z,100237.06
2023-01-09T17:45:19.844Z,100234.44
2023-01-09T17:47:49.319Z,100243.34
2023-01-09T17:50:20.217Z,100244.25
2023-01-09T17:52:52.403Z,100252.25
2023-01-09T17:55:22.510Z,100247.78
2023-01-09T17:57:50.400Z,100262.84
2023-01-09T18:00:29.587Z,100261.09
2023-01-09T18:02:58.139Z,100268.22
2023-01-09T18:05:27.773Z,100282.47
2023-01-09T18:07:56.079Z,100280.72
2023-01-09T18:10:30.912Z,100286.94
2023-01-09T18:13:01.272Z,100285.19
2023-01-09T18:15:29.685Z,100280.78
2023-01-09T18:18:03.759Z,100296.75
2023-01-09T18:20:32.055Z,100299.44
2023-01-09T18:23:04.881Z,100298.53
2023-01-09T18:26:37.089Z,100301.22
2023-01-09T18:28:43.727Z,100309.19
2023-01-09T18:31:13.412Z,100315.38
2023-01-09T18:33:41.412Z,100310.91
2023-01-09T18:36:11.067Z,100321.56
2023-01-09T18:38:39.219Z,100327.81
2023-01-09T18:41:07.497Z,100326.91
2023-01-09T18:43:35.385Z,100338.44
2023-01-09T18:46:08.841Z,100332.25
2023-01-09T18:48:37.151Z,100347.28
2023-01-09T18:51:07.162Z,100344.59
2023-01-09T18:53:35.519Z,100350.81
2023-01-09T18:56:05.185Z,100374.75
2023-01-09T18:58:34.710Z,100363.22
2023-01-09T19:01:03.058Z,100367.63
2023-01-09T19:03:32.836Z,100374.75
2023-01-09T19:06:01.637Z,100374.75
2023-01-09T19:08:30.365Z,100381.84
2023-01-09T19:10:59.845Z,100378.31
2023-01-09T19:13:31.203Z,100383.59
2023-01-09T19:15:59.794Z,100380.94
2023-01-09T19:18:29.402Z,100389.84
2023-01-09T19:20:59.357Z,100405.81
2023-01-09T19:23:27.403Z,100406.69
2023-01-09T19:25:57.676Z,100418.25
2023-01-09T19:28:25.527Z,100424.44
2023-01-09T19:30:57.938Z,100422.69
2023-01-09T19:33:26.357Z,100436.03
2023-01-09T19:35:54.804Z,100442.22
2023-01-09T19:38:24.351Z,100438.66
2023-01-09T19:40:52.219Z,100440.41
2023-01-09T19:43:26.712Z,100443.09
2023-01-09T19:45:55.270Z,100444.84
2023-01-09T19:48:24.528Z,100458.16
2023-01-09T19:50:52.556Z,100470.59
2023-01-09T19:53:20.352Z,100466.16
2023-01-09T19:55:50.230Z,100469.72
2023-01-09T19:58:18.186Z,100487.47
2023-01-09T20:00:46.071Z,100475.03
2023-01-09T20:03:13.979Z,100484.81
2023-01-09T20:05:41.843Z,100488.41
2023-01-09T20:08:11.732Z,100495.50
2023-01-09T20:10:40.009Z,100498.16
2023-01-09T20:13:09.588Z,100494.63
2023-01-09T20:15:38.939Z,100499.97
2023-01-09T20:18:07.872Z,100508.81
2023-01-09T20:20:36.191Z,100523.91
2023-01-09T20:23:03.954Z,100530.09
2023-01-09T20:25:31.783Z,100530.09
2023-01-09T20:27:59.766Z,100527.44
2023-01-09T20:30:29.066Z,100545.22
2023-01-09T20:32:58.749Z,100550.53
2023-01-09T20:35:28.110Z,100559.41
2023-01-09T20:37:56.019Z,100550.53
2023-01-09T20:40:24.115Z,100564.72
2023-01-09T20:42:52.662Z,100568.28
2023-01-09T20:45:20.876Z,100570.03
2023-01-09T20:47:52.676Z,100580.66
2023-01-09T20:50:20.624Z,100586.00
2023-01-09T20:52:48.737Z,100589.56
2023-01-09T20:55:16.907Z,100596.66
2023-01-09T20:57:44.827Z,100599.31
2023-01-09T21:00:13.887Z,100618.81
2023-01-09T21:02:41.716Z,100607.25
2023-01-09T21:05:11.427Z,100618.81
2023-01-09T21:07:39.289Z,100616.16
2023-01-09T21:10:08.286Z,100627.66
2023-01-09T21:12:36.139Z,100618.81
2023-01-09T21:15:06.505Z,100632.09
2023-01-09T21:17:35.093Z,100642.75
2023-01-09T21:20:03.296Z,100650.72
2023-01-09T21:22:34.704Z,100649.84
2023-01-09T21:25:02.792Z,100655.16
2023-01-09T21:27:32.699Z,100660.47
2023-01-09T21:30:00.686Z,100671.13
2023-01-09T21:32:28.654Z,100682.63
2023-01-09T21:35:00.643Z,100680.84
2023-01-09T21:37:30.809Z,100693.28
2023-01-09T21:40:00.205Z,100696.81
2023-01-09T21:42:44.398Z,100698.59
2023-01-09T21:45:35.206Z,100708.38
2023-01-09T21:48:03.775Z,100703.91
2023-01-09T21:50:31.807Z,100718.97
2023-01-09T21:53:00.276Z,100717.19
2023-01-09T21:55:32.574Z,100721.63
2023-01-09T21:58:02.226Z,100713.66
2023-01-09T22:00:30.601Z,100716.31
2023-01-09T22:02:58.996Z,100724.28
2023-01-09T22:05:27.321Z,100721.59
2023-01-09T22:07:56.581Z,100738.44
2023-01-09T22:10:24.509Z,100732.22
2023-01-09T22:13:11.376Z,100731.34
2023-01-09T22:15:39.313Z,100741.09
2023-01-09T22:18:07.265Z,100738.38
2023-01-09T22:20:35.056Z,100747.22
2023-01-09T22:23:05.068Z,100756.97
2023-01-09T22:25:32.914Z,100760.50
2023-01-09T22:28:02.214Z,100762.25
2023-01-09T22:30:30.017Z,100779.09
2023-01-09T22:32:57.857Z,100785.28
2023-01-09T22:35:25.779Z,100783.50
2023-01-09T22:37:53.942Z,100781.69
2023-01-09T22:40:22.055Z,100783.44
2023-01-09T22:42:52.869Z,100789.63
2023-01-09T22:45:22.229Z,100798.44
2023-01-09T22:47:50.059Z,100809.94
2023-01-09T22:50:18.482Z,100813.44
2023-01-09T22:52:48.526Z,100820.53
2023-01-09T22:55:16.401Z,100828.50
2023-01-09T22:57:44.379Z,100822.34
2023-01-09T23:00:13.248Z,100827.59
2023-01-09T23:02:42.569Z,100832.91
2023-01-09T23:05:10.903Z,100837.31
2023-01-09T23:07:38.669Z,100840.84
2023-01-09T23:10:07.751Z,100853.25
2023-01-09T23:12:35.516Z,100854.97
2023-01-09T23:15:03.363Z,100862.03
2023-01-09T23:17:31.274Z,100862.91
2023-01-09T23:20:00.397Z,100870.84
2023-01-09T23:22:28.262Z,100876.13
2023-01-09T23:24:56.072Z,100880.53
2023-01-09T23:27:24.351Z,100887.59
2023-01-09T23:29:52.157Z,100904.41
2023-01-09T23:32:19.973Z,100914.16
2023-01-09T23:34:49.450Z,100915.03
2023-01-09T23:37:18.686Z,100922.13
2023-01-09T23:39:46.466Z,100923.84
2023-01-09T23:42:31.958Z,100936.19
2023-01-09T23:44:59.927Z,100941.50
2023-01-09T23:47:30.254Z,100942.41
2023-01-09T23:49:58.490Z,100951.25
2023-01-09T23:52:27.793Z,100955.66
2023-01-09T23:54:56.669Z,100961.81
2023-01-09T23:57:24.519Z,100961.81
2023-01-09T23:59:52.400Z,100970.63
